Macon, Georgia
Current Conditions -  °F | °C
As of 9:53 AM on Saturday 22 Nov 2014 (Local Time) from KMCN Reporting Station
Broken Clouds Broken Clouds  
Wind Chill:   Ceiling: 6000
Heat Index:   Visibility: 10mi
Dew Point: -1°   Wind: 8mph
Humidity: 52%   Direction: 70°ENE
Pressure: 30.47"   Gusts: NA
Location:  32.84°N, 83.64°W
Report Text: KMCN 221453Z 07007KT 10SM FEW044 BKN060 09/M01 A3047 RMK AO2 SLP319 T00891006 51012
Loading
Personal Weather Stations






























Interactive Weather Map New forecast layout! Learn more

10-Day Weather Forecast

Advertisements
Track Severe Weather on mobile